Addison Township, Michigan
Current Conditions -  °F | °C
As of 10:54 AM on Thursday 30 Oct 2014 (Local Time) from KD95 Reporting Station
Overcast Overcast  
Wind Chill: 40°   Ceiling: 3800
Heat Index: 43°   Visibility: 10mi
Dew Point: 33°   Wind: 5mph
Humidity: 69%   Direction: 310°NW
Pressure: 30.14"   Gusts: NA
Location:  42.8434°N, 83.1398°W
Report Text: KD95 301454Z AUTO 31004KT 10SM OVC038 06/01 A3014 RMK AO2 T00600008
Loading
Personal Weather Stations






























Interactive Weather Map
Tropical Storm Tracking
New forecast layout! Learn more

10-Day Weather Forecast

Advertisements
Track Severe Weather on mobile